Terminal Aerodrome Forecast
Issued by NWS

Home | Current Version | Previous Version | Text Only | Print | Product List | Glossary On
Versions: 1 2 3 4 5 6 7 8 9 10 11 12 13 14 15 16
833
FTUS43 KABR 061728
TAFPIR
TAF
KPIR 061728Z 0618/0718 21006KT P6SM SCT250
     FM062000 01012KT P6SM SCT200
     FM062300 03013G22KT P6SM SCT200
     FM070500 03010KT P6SM BKN100
     FM071400 08010KT P6SM SKC=

USA.gov is the U.S. government's official web portal to all federal, state and local government web resources and services.